Overview Statistics Trail Chart Weather Telemetry Raw packets
 

This is the latest recevied weather packets stored in our database for station/object EA5GTE-12. If no packets are shown the sender has not sent any weather packets the latest 10 day(s).

<< 6 7 8 9 10 11 12 >>
Time Temp. Humidity Pressure Rain* Wind** Luminosity Snow
1788438225 40.56° C 17% 944.6 hPa - - - -
1788437325 41.11° C 16% 944.9 hPa - - - -
1788436425 39.44° C 18% 944.9 hPa - - - -
1788435525 40.56° C 18% 945.1 hPa - - - -
1788434625 41.67° C 18% 945.2 hPa - - - -
1788433725 40.56° C 21% 945.5 hPa - - - -
1788432825 38.89° C 23% 945.6 hPa - - - -
1788431925 38.89° C 22% 945.8 hPa - - - -
1788430125 38.89° C 27% 946.1 hPa - - - -
1788429225 36.11° C 32% 946.1 hPa - - - -
1788428325 36.67° C 32% 946.1 hPa - - - -
1788427425 36.11° C 35% 946 hPa - - - -
1788426525 36.67° C 36% 946 hPa - - - -
1788425625 33.89° C 44% 946 hPa - - - -
1788424725 35° C 40% 946 hPa - - - -
1788423825 33.33° C 44% 946.1 hPa - - - -
1788422925 33.33° C 47% 946.2 hPa - - - -
1788422025 32.78° C 49% 946.1 hPa - - - -
1788421124 31.11° C 61% 946.2 hPa - - - -
1788420225 29.44° C 75% 946.3 hPa - - - -
1788419324 27.22° C 90% 946.3 hPa - - - -
1788418424 25° C 100% 946.3 hPa - - - -
1788417524 22.22° C 100% 946.2 hPa - - - -
1788416624 20.56° C 100% 946.1 hPa - - - -
1788415724 19.44° C 100% 946.1 hPa - - - -

* Rain since midnight (hover to see other rain measurements)
** Current wind speed in m/s (hover to see current wind gust speed)